< < Back
Terminal Aerodrome Forecast


Current Version              Previous Versions:   1  2  3  4  5  6  7  8  9  

Terminal Aerodrome Forecast

419
FTUS42 KGSP 041017 AAB
TAFGSP
TAF AMD
KGSP 041017Z 0410/0506 21004KT 1SM BR OVC002
     FM041200 22009KT 1 1/2SM BR OVC002 WS020/24040KT
     FM041400 22010KT 3SM BR BKN003 WS020/24040KT
     FM041600 22013KT P6SM BKN013
     FM042000 22015G23KT P6SM BKN250
     FM050000 22009KT P6SM BKN045=

Latest METAR

533
SAUS70 KWBC 041500 RRK
MTRGSP
METAR KGSP 041453Z 20011KT 3/4SM BR OVC002 12/12 A3001 RMK AO2 SLP161
T01170117 52003


USA.gov is the U.S. government's official web portal to all federal, state and local government web resources and services.